OKGPC PASC-PAQT

Flight info

Callsign OKGPC
Flight time 0h 37m
Altitude 4000
Route SCC T235 ZADRO
Aircraft PA24/L-VGD/C

Departure

Time 2026-04-28 19:03
Airport Deadhorse Airport (PASC)

Arrival

Time 2026-04-28 19:41
Airport Nuiqsut Airport (PAQT)
Time Latitude Longitude Altitude Speed Heading
2026-04-28 18:45 70.19777 -148.46616 67 ft 0 kts 165°
2026-04-28 18:55 70.19771 -148.46610 60 ft 3 kts 155°
2026-04-28 18:56 70.19734 -148.46540 65 ft 9 kts 147°
2026-04-28 18:56 70.19667 -148.46520 65 ft 12 kts 214°
2026-04-28 18:56 70.19619 -148.46789 67 ft 17 kts 252°
2026-04-28 18:56 70.19586 -148.47137 66 ft 17 kts 256°
2026-04-28 18:57 70.19559 -148.47457 68 ft 15 kts 253°
2026-04-28 18:57 70.19533 -148.47756 67 ft 16 kts 255°
2026-04-28 18:57 70.19504 -148.48062 67 ft 16 kts 254°
2026-04-28 18:57 70.19474 -148.48374 68 ft 15 kts 254°
2026-04-28 18:58 70.19446 -148.48674 69 ft 14 kts 255°
2026-04-28 18:58 70.19421 -148.48955 69 ft 14 kts 255°
2026-04-28 18:58 70.19413 -148.49100 68 ft 7 kts 272°
2026-04-28 18:58 70.19398 -148.49185 61 ft 1 kts 139°
2026-04-28 18:59 70.19395 -148.49162 62 ft 0 kts 90°
2026-04-28 19:00 70.19378 -148.49099 66 ft 9 kts 169°
2026-04-28 19:00 70.19375 -148.49096 66 ft 0 kts 167°
2026-04-28 19:00 70.19347 -148.49075 67 ft 6 kts 162°
2026-04-28 19:01 70.19342 -148.49070 68 ft 0 kts 163°
2026-04-28 19:02 70.19324 -148.49055 65 ft 8 kts 162°
2026-04-28 19:02 70.19270 -148.48876 72 ft 15 kts 98°
2026-04-28 19:02 70.19309 -148.48342 70 ft 54 kts 73°
2026-04-28 19:03 70.19434 -148.46955 148 ft 80 kts 73°
2026-04-28 19:03 70.19588 -148.45305 440 ft 79 kts 70°
2026-04-28 19:03 70.19753 -148.43814 753 ft 80 kts 73°
2026-04-28 19:03 70.19852 -148.42150 1086 ft 78 kts 79°
2026-04-28 19:04 70.20279 -148.41076 1229 ft 107 kts 14°
2026-04-28 19:04 70.20955 -148.42122 1562 ft 122 kts 312°
2026-04-28 19:04 70.21058 -148.44777 1740 ft 142 kts 264°
2026-04-28 19:04 70.20951 -148.47456 2311 ft 124 kts 264°
2026-04-28 19:05 70.20925 -148.50141 2474 ft 139 kts 262°
2026-04-28 19:05 70.20756 -148.52771 2954 ft 123 kts 252°
2026-04-28 19:05 70.20520 -148.55272 3147 ft 131 kts 249°
2026-04-28 19:05 70.20248 -148.57727 3557 ft 119 kts 243°
2026-04-28 19:06 70.19968 -148.60095 3763 ft 126 kts 249°
2026-04-28 19:06 70.19808 -148.61766 3991 ft 122 kts 251°
2026-04-28 19:06 70.19523 -148.65285 4020 ft 148 kts 261°
2026-04-28 19:06 70.19452 -148.68384 4111 ft 152 kts 268°
2026-04-28 19:07 70.19509 -148.71488 4137 ft 151 kts 270°
2026-04-28 19:07 70.19590 -148.74589 4056 ft 154 kts 275°
2026-04-28 19:07 70.19692 -148.77706 4026 ft 153 kts 274°
2026-04-28 19:07 70.19841 -148.80867 3981 ft 156 kts 275°
2026-04-28 19:08 70.19882 -148.84034 4009 ft 153 kts 269°
2026-04-28 19:08 70.19939 -148.87191 3986 ft 155 kts 271°
2026-04-28 19:08 70.19951 -148.90356 3994 ft 154 kts 268°
2026-04-28 19:08 70.19958 -148.93510 3993 ft 155 kts 269°
2026-04-28 19:09 70.20021 -148.96686 3988 ft 155 kts 271°
2026-04-28 19:09 70.20051 -148.99811 3990 ft 155 kts 270°
2026-04-28 19:09 70.20107 -149.02990 3980 ft 155 kts 273°
2026-04-28 19:09 70.20193 -149.06161 3987 ft 155 kts 270°
2026-04-28 19:10 70.20232 -149.09343 3988 ft 155 kts 271°
2026-04-28 19:10 70.20282 -149.12513 4014 ft 154 kts 270°
2026-04-28 19:10 70.20408 -149.15672 4009 ft 156 kts 278°
2026-04-28 19:10 70.20546 -149.18840 4018 ft 154 kts 271°
2026-04-28 19:11 70.20568 -149.22009 4017 ft 155 kts 265°
2026-04-28 19:11 70.20500 -149.25116 4147 ft 146 kts 263°
2026-04-28 19:11 70.20416 -149.28099 4129 ft 150 kts 267°
2026-04-28 19:11 70.20520 -149.31177 4119 ft 153 kts 274°
2026-04-28 19:12 70.20653 -149.34290 4138 ft 154 kts 275°
2026-04-28 19:12 70.20757 -149.37432 4087 ft 157 kts 265°
2026-04-28 19:12 70.20740 -149.40628 4072 ft 156 kts 269°
2026-04-28 19:12 70.20782 -149.43876 4025 ft 159 kts 272°
2026-04-28 19:13 70.20870 -149.47105 4039 ft 157 kts 275°
2026-04-28 19:13 70.21031 -149.50324 3979 ft 160 kts 274°
2026-04-28 19:13 70.21122 -149.53597 4004 ft 158 kts 271°
2026-04-28 19:13 70.21174 -149.56835 3989 ft 158 kts 269°
2026-04-28 19:14 70.21183 -149.60102 3969 ft 159 kts 269°
2026-04-28 19:14 70.21167 -149.63352 3969 ft 158 kts 265°
2026-04-28 19:14 70.21136 -149.66538 3855 ft 157 kts 268°
2026-04-28 19:14 70.21145 -149.69748 3848 ft 156 kts 272°
2026-04-28 19:15 70.21180 -149.72961 3836 ft 157 kts 269°
2026-04-28 19:15 70.21195 -149.76184 3827 ft 157 kts 270°
2026-04-28 19:15 70.21265 -149.79396 3813 ft 157 kts 275°
2026-04-28 19:15 70.21323 -149.81522 3815 ft 157 kts 275°
2026-04-28 19:16 70.21466 -149.85801 3838 ft 157 kts 276°
2026-04-28 19:16 70.21546 -149.89013 3836 ft 157 kts 274°
2026-04-28 19:16 70.21598 -149.92224 3850 ft 157 kts 274°
2026-04-28 19:16 70.21672 -149.95430 3854 ft 156 kts 274°
2026-04-28 19:17 70.21731 -149.98633 3857 ft 156 kts 276°
2026-04-28 19:17 70.21806 -150.01837 3865 ft 157 kts 272°
2026-04-28 19:17 70.21770 -150.05061 3871 ft 157 kts 268°
2026-04-28 19:17 70.21753 -150.08225 3884 ft 156 kts 269°
2026-04-28 19:18 70.21772 -150.11437 3878 ft 157 kts 274°
2026-04-28 19:18 70.21752 -150.14651 3888 ft 157 kts 266°
2026-04-28 19:18 70.21639 -150.17843 3889 ft 157 kts 263°
2026-04-28 19:18 70.21541 -150.21051 3890 ft 157 kts 265°
2026-04-28 19:19 70.21452 -150.24252 3904 ft 156 kts 265°
2026-04-28 19:19 70.21322 -150.27447 3895 ft 158 kts 257°
2026-04-28 19:19 70.21113 -150.30607 3920 ft 155 kts 257°
2026-04-28 19:19 70.20889 -150.33727 3920 ft 156 kts 257°
2026-04-28 19:20 70.20730 -150.36913 3918 ft 158 kts 264°
2026-04-28 19:20 70.20620 -150.40118 3930 ft 157 kts 264°
2026-04-28 19:20 70.20531 -150.43283 3928 ft 157 kts 261°
2026-04-28 19:20 70.20335 -150.46459 3937 ft 157 kts 259°
2026-04-28 19:21 70.20148 -150.49615 3955 ft 156 kts 260°
2026-04-28 19:21 70.20025 -150.52809 3949 ft 157 kts 264°
2026-04-28 19:21 70.19883 -150.56007 3966 ft 157 kts 259°
2026-04-28 19:21 70.19703 -150.59185 3961 ft 158 kts 263°
2026-04-28 19:22 70.19568 -150.62387 3964 ft 157 kts 261°
2026-04-28 19:22 70.19468 -150.64502 3977 ft 157 kts 262°
2026-04-28 19:22 70.19236 -150.68759 3965 ft 158 kts 261°
2026-04-28 19:22 70.19060 -150.71911 3982 ft 158 kts 258°
2026-04-28 19:23 70.18844 -150.75080 3983 ft 158 kts 261°
2026-04-28 19:23 70.18668 -150.78272 3995 ft 157 kts 263°
2026-04-28 19:23 70.18483 -150.81454 4001 ft 158 kts 258°
2026-04-28 19:23 70.18274 -150.84641 4000 ft 158 kts 258°
2026-04-28 19:24 70.18044 -150.87806 4012 ft 158 kts 256°
2026-04-28 19:24 70.17895 -150.91017 4002 ft 159 kts 263°
2026-04-28 19:24 70.17753 -150.94241 4014 ft 158 kts 261°
2026-04-28 19:24 70.17602 -150.97447 4013 ft 158 kts 258°
2026-04-28 19:25 70.17408 -151.00639 4020 ft 158 kts 257°
2026-04-28 19:25 70.17183 -151.03816 4026 ft 159 kts 256°
2026-04-28 19:25 70.16964 -151.07002 4027 ft 159 kts 259°
2026-04-28 19:25 70.16763 -151.10151 4025 ft 159 kts 255°
2026-04-28 19:26 70.16588 -151.13363 4021 ft 158 kts 261°
2026-04-28 19:26 70.16425 -151.16571 4035 ft 159 kts 261°
2026-04-28 19:26 70.16213 -151.19778 4023 ft 159 kts 259°
2026-04-28 19:26 70.16049 -151.22990 4042 ft 159 kts 261°
2026-04-28 19:27 70.15900 -151.26213 4030 ft 160 kts 263°
2026-04-28 19:27 70.15762 -151.29445 4038 ft 159 kts 259°
2026-04-28 19:27 70.15547 -151.32634 4049 ft 159 kts 256°
2026-04-28 19:27 70.15298 -151.35793 4042 ft 159 kts 256°
2026-04-28 19:28 70.15179 -151.39044 4028 ft 160 kts 265°
2026-04-28 19:28 70.15067 -151.42261 4064 ft 158 kts 260°
2026-04-28 19:28 70.14814 -151.45435 4026 ft 160 kts 252°
2026-04-28 19:28 70.14506 -151.48510 4078 ft 157 kts 251°
2026-04-28 19:29 70.14183 -151.51577 4064 ft 158 kts 250°
2026-04-28 19:29 70.13969 -151.53680 4061 ft 159 kts 252°
2026-04-28 19:29 70.13148 -151.57207 3988 ft 159 kts 223°
2026-04-28 19:29 70.12386 -151.59446 4070 ft 153 kts 221°
2026-04-28 19:30 70.11638 -151.61702 4054 ft 155 kts 221°
2026-04-28 19:30 70.10893 -151.63959 4046 ft 152 kts 220°
2026-04-28 19:30 70.10249 -151.66316 4081 ft 144 kts 242°
2026-04-28 19:30 70.10230 -151.69229 3996 ft 148 kts 289°
2026-04-28 19:31 70.10878 -151.71444 4007 ft 142 kts 340°
2026-04-28 19:31 70.11787 -151.71222 4053 ft 128 kts 37°
2026-04-28 19:31 70.12196 -151.69044 4018 ft 122 kts 75°
2026-04-28 19:31 70.12421 -151.66762 4041 ft 115 kts 71°
2026-04-28 19:32 70.12710 -151.64518 3952 ft 119 kts 75°
2026-04-28 19:32 70.12994 -151.62255 3872 ft 117 kts 71°
2026-04-28 19:32 70.13293 -151.60033 3745 ft 118 kts 72°
2026-04-28 19:32 70.13560 -151.57763 3628 ft 117 kts 76°
2026-04-28 19:33 70.13807 -151.55513 3490 ft 116 kts 72°
2026-04-28 19:33 70.14120 -151.53294 3328 ft 117 kts 67°
2026-04-28 19:33 70.14462 -151.51147 3189 ft 116 kts 66°
2026-04-28 19:33 70.14845 -151.49050 3047 ft 115 kts 67°
2026-04-28 19:34 70.15214 -151.46961 2865 ft 115 kts 66°
2026-04-28 19:34 70.15514 -151.44797 2704 ft 113 kts 71°
2026-04-28 19:34 70.15764 -151.42631 2553 ft 111 kts 76°
2026-04-28 19:34 70.15984 -151.40447 2380 ft 111 kts 75°
2026-04-28 19:35 70.16228 -151.38343 2239 ft 109 kts 73°
2026-04-28 19:35 70.16486 -151.36234 2080 ft 109 kts 73°
2026-04-28 19:35 70.16741 -151.34163 1949 ft 107 kts 72°
2026-04-28 19:35 70.16983 -151.32117 1814 ft 105 kts 74°
2026-04-28 19:36 70.17232 -151.30109 1705 ft 101 kts 71°
2026-04-28 19:36 70.17491 -151.28308 1720 ft 86 kts 72°
2026-04-28 19:36 70.17677 -151.26802 1710 ft 71 kts 75°
2026-04-28 19:36 70.17861 -151.25418 1698 ft 76 kts 69°
2026-04-28 19:37 70.18054 -151.23939 1665 ft 77 kts 76°
2026-04-28 19:37 70.18139 -151.22925 1609 ft 78 kts 78°
2026-04-28 19:37 70.18429 -151.20984 1471 ft 81 kts 70°
2026-04-28 19:37 70.18629 -151.19473 1409 ft 75 kts 74°
2026-04-28 19:38 70.18784 -151.18028 1278 ft 75 kts 77°
2026-04-28 19:38 70.18959 -151.16579 1131 ft 76 kts 71°
2026-04-28 19:38 70.19156 -151.15137 997 ft 77 kts 72°
2026-04-28 19:38 70.19323 -151.13659 916 ft 75 kts 71°
2026-04-28 19:39 70.19494 -151.12178 813 ft 77 kts 68°
2026-04-28 19:39 70.19700 -151.10754 700 ft 75 kts 66°
2026-04-28 19:39 70.19878 -151.09264 584 ft 76 kts 63°
2026-04-28 19:39 70.20063 -151.07829 443 ft 77 kts 64°
2026-04-28 19:40 70.20266 -151.06391 363 ft 74 kts 64°
2026-04-28 19:40 70.20442 -151.04906 241 ft 77 kts 67°
2026-04-28 19:40 70.20632 -151.03442 140 ft 76 kts 63°
2026-04-28 19:40 70.20797 -151.02092 51 ft 58 kts 62°
2026-04-28 19:41 70.20904 -151.01314 49 ft 26 kts 59°
2026-04-28 19:41 70.20965 -151.00875 46 ft 26 kts 68°
2026-04-28 19:41 70.21037 -151.00313 42 ft 31 kts 70°
2026-04-28 19:41 70.21109 -150.99719 43 ft 22 kts 69°
2026-04-28 19:42 70.21155 -150.99473 37 ft 7 kts 18°
2026-04-28 19:42 70.21195 -150.99465 39 ft 10 kts 352°
2026-04-28 19:42 70.21275 -150.99552 43 ft 13 kts 328°
2026-04-28 19:42 70.21303 -150.99695 43 ft 11 kts 257°
2026-04-28 19:43 70.21285 -150.99784 43 ft 0 kts 184°